TAF and METAR

METAR for Al Najaf

ORNI 290300Z 33014KT 8000 SCT040 31/08 Q1006 NOSIG
Report created 29. mai 05:00
wind 14 knots from NNW (330°) visibility 8000 meters scattered clouds (~50% cover) at 4000 feet Temperature 31° with dewpoint at 8° (Humidity 23.93%) Pressure 1006 hPa no significant weather change expected the next couple of hours

TAF for Al Najaf

TAF ORNI 281700Z 2818/2918 10008KT 8000 NSC BECMG 2907/2909 28010G20KT 4000 BLDU SCT060
Report created 28. mai 19:00

between 28. mai 20:00 - 29. mai 20:00

wind 8 knots from E (100°) visibility 8000 meters No significant clouds.

becoming between 29. mai 09:00 - 29. mai 11:00

wind 10 knots from W (280°) with gusts up to 20 knots visibility 4000 meters blowing widespread dust scattered clouds (~50% cover) at 6000 feet